Aviation Digital Data Service (ADDS)

Output produced by METARs form (1204 UTC 19 January 2019)
found at http://www.aviationweather.gov/metar/data/
 
METAR text: ROMY 191100Z 11004KT CAVOK 19/13 Q1019
Conditions at: ROMY (MIYAKOJIMA ISLAN, JP) observed 1100 UTC 19 January 2019
Temperature: 19.0°C (66°F)
Dewpoint: 13.0°C (55°F) [RH = 68%]
Pressure (altimeter): 30.09 inches Hg (1019.0 mb)
Winds: from the ESE (110 degrees) at 5 MPH (4 knots; 2.1 m/s)
Visibility: 6 or more miles (10+ km)
Ceiling: ceiling and visibility are OK
Clouds: unknown
Weather: no significant weather observed at this time

METAR text: ROMY 191000Z 11004KT 050V120 CAVOK 19/14 Q1019
Conditions at: ROMY (MIYAKOJIMA ISLAN, JP) observed 1000 UTC 19 January 2019
Temperature: 19.0°C (66°F)
Dewpoint: 14.0°C (57°F) [RH = 73%]
Pressure (altimeter): 30.09 inches Hg (1019.0 mb)
Winds: from the ESE (110 degrees) at 5 MPH (4 knots; 2.1 m/s)
Visibility: 6 or more miles (10+ km)
Ceiling: ceiling and visibility are OK
Clouds: unknown
Weather: no significant weather observed at this time

METAR text: ROMY 190900Z 10003KT 080V140 9999 FEW035 SCT100 20/14 Q1019
Conditions at: ROMY (MIYAKOJIMA ISLAN, JP) observed 0900 UTC 19 January 2019
Temperature: 20.0°C (68°F)
Dewpoint: 14.0°C (57°F) [RH = 68%]
Pressure (altimeter): 30.09 inches Hg (1019.0 mb)
Winds: from the E (100 degrees) at 3 MPH (3 knots; 1.5 m/s)
Visibility: 6 or more miles (10+ km)
Ceiling: at least 12,000 feet AGL
Clouds: few clouds at 3500 feet AGL
scattered clouds at 10000 feet AGL
Weather: no significant weather observed at this time

METAR text: ROMY 190800Z 12006KT 090V150 9999 FEW035 SCT100 22/13 Q1019
Conditions at: ROMY (MIYAKOJIMA ISLAN, JP) observed 0800 UTC 19 January 2019
Temperature: 22.0°C (72°F)
Dewpoint: 13.0°C (55°F) [RH = 57%]
Pressure (altimeter): 30.09 inches Hg (1019.0 mb)
Winds: from the ESE (120 degrees) at 7 MPH (6 knots; 3.1 m/s)
Visibility: 6 or more miles (10+ km)
Ceiling: at least 12,000 feet AGL
Clouds: few clouds at 3500 feet AGL
scattered clouds at 10000 feet AGL
Weather: no significant weather observed at this time

METAR text: ROMY 190700Z 13007KT 100V160 9999 FEW041 BKN100 23/13 Q1018
Conditions at: ROMY (MIYAKOJIMA ISLAN, JP) observed 0700 UTC 19 January 2019
Temperature: 23.0°C (73°F)
Dewpoint: 13.0°C (55°F) [RH = 53%]
Pressure (altimeter): 30.06 inches Hg (1018.0 mb)
Winds: from the SE (130 degrees) at 8 MPH (7 knots; 3.6 m/s)
Visibility: 6 or more miles (10+ km)
Ceiling: 10000 feet AGL
Clouds: few clouds at 4100 feet AGL
broken clouds at 10000 feet AGL
Weather: no significant weather observed at this time

METAR text: ROMY 190600Z 13007KT 100V160 9999 FEW041 SCT050 24/13 Q1019
Conditions at: ROMY (MIYAKOJIMA ISLAN, JP) observed 0600 UTC 19 January 2019
Temperature: 24.0°C (75°F)
Dewpoint: 13.0°C (55°F) [RH = 50%]
Pressure (altimeter): 30.09 inches Hg (1019.0 mb)
Winds: from the SE (130 degrees) at 8 MPH (7 knots; 3.6 m/s)
Visibility: 6 or more miles (10+ km)
Ceiling: at least 12,000 feet AGL
Clouds: few clouds at 4100 feet AGL
scattered clouds at 5000 feet AGL
Weather: no significant weather observed at this time

METAR text: ROMY 190500Z 12006KT 050V180 9999 FEW035 24/14 Q1019
Conditions at: ROMY (MIYAKOJIMA ISLAN, JP) observed 0500 UTC 19 January 2019
Temperature: 24.0°C (75°F)
Dewpoint: 14.0°C (57°F) [RH = 54%]
Pressure (altimeter): 30.09 inches Hg (1019.0 mb)
Winds: from the ESE (120 degrees) at 7 MPH (6 knots; 3.1 m/s)
Visibility: 6 or more miles (10+ km)
Ceiling: at least 12,000 feet AGL
Clouds: few clouds at 3500 feet AGL
Weather: no significant weather observed at this time

METAR text: ROMY 190400Z 10009KT 070V140 9999 FEW038 SCT050 23/14 Q1020
Conditions at: ROMY (MIYAKOJIMA ISLAN, JP) observed 0400 UTC 19 January 2019
Temperature: 23.0°C (73°F)
Dewpoint: 14.0°C (57°F) [RH = 57%]
Pressure (altimeter): 30.12 inches Hg (1020.0 mb)
Winds: from the E (100 degrees) at 10 MPH (9 knots; 4.6 m/s)
Visibility: 6 or more miles (10+ km)
Ceiling: at least 12,000 feet AGL
Clouds: few clouds at 3800 feet AGL
scattered clouds at 5000 feet AGL
Weather: no significant weather observed at this time

METAR text: ROMY 190300Z 02003KT 330V060 9999 FEW038 BKN050 21/13 Q1021
Conditions at: ROMY (MIYAKOJIMA ISLAN, JP) observed 0300 UTC 19 January 2019
Temperature: 21.0°C (70°F)
Dewpoint: 13.0°C (55°F) [RH = 60%]
Pressure (altimeter): 30.15 inches Hg (1021.0 mb)
Winds: from the NNE (20 degrees) at 3 MPH (3 knots; 1.5 m/s)
Visibility: 6 or more miles (10+ km)
Ceiling: 5000 feet AGL
Clouds: few clouds at 3800 feet AGL
broken clouds at 5000 feet AGL
Weather: no significant weather observed at this time

METAR text: ROMY 190200Z VRB02KT 9999 SCT043 BKN050 22/12 Q1022
Conditions at: ROMY (MIYAKOJIMA ISLAN, JP) observed 0200 UTC 19 January 2019
Temperature: 22.0°C (72°F)
Dewpoint: 12.0°C (54°F) [RH = 53%]
Pressure (altimeter): 30.18 inches Hg (1022.0 mb)
Winds: variable direction winds at 2 MPH (2 knots; 1.0 m/s)
Visibility: 6 or more miles (10+ km)
Ceiling: 5000 feet AGL
Clouds: scattered clouds at 4300 feet AGL
broken clouds at 5000 feet AGL
Weather: no significant weather observed at this time

METAR text: ROMY 190100Z 34003KT 310V020 CAVOK 21/11 Q1022
Conditions at: ROMY (MIYAKOJIMA ISLAN, JP) observed 0100 UTC 19 January 2019
Temperature: 21.0°C (70°F)
Dewpoint: 11.0°C (52°F) [RH = 53%]
Pressure (altimeter): 30.18 inches Hg (1022.0 mb)
Winds: from the NNW (340 degrees) at 3 MPH (3 knots; 1.5 m/s)
Visibility: 6 or more miles (10+ km)
Ceiling: ceiling and visibility are OK
Clouds: unknown
Weather: no significant weather observed at this time

METAR text: ROMY 190000Z VRB01KT 9999 FEW048 20/11 Q1022
Conditions at: ROMY (MIYAKOJIMA ISLAN, JP) observed 0000 UTC 19 January 2019
Temperature: 20.0°C (68°F)
Dewpoint: 11.0°C (52°F) [RH = 56%]
Pressure (altimeter): 30.18 inches Hg (1022.0 mb)
Winds: variable direction winds at 1 MPH (1 knots; 0.5 m/s)
Visibility: 6 or more miles (10+ km)
Ceiling: at least 12,000 feet AGL
Clouds: few clouds at 4800 feet AGL
Weather: no significant weather observed at this time

METAR text: ROMY 182300Z 10004KT 9999 SCT048 17/11 Q1022
Conditions at: ROMY (MIYAKOJIMA ISLAN, JP) observed 2300 UTC 18 January 2019
Temperature: 17.0°C (63°F)
Dewpoint: 11.0°C (52°F) [RH = 68%]
Pressure (altimeter): 30.18 inches Hg (1022.0 mb)
Winds: from the E (100 degrees) at 5 MPH (4 knots; 2.1 m/s)
Visibility: 6 or more miles (10+ km)
Ceiling: at least 12,000 feet AGL
Clouds: scattered clouds at 4800 feet AGL
Weather: no significant weather observed at this time

METAR text: ROMY 182200Z 10004KT 9999 FEW040 SCT050 17/11 Q1021
Conditions at: ROMY (MIYAKOJIMA ISLAN, JP) observed 2200 UTC 18 January 2019
Temperature: 17.0°C (63°F)
Dewpoint: 11.0°C (52°F) [RH = 68%]
Pressure (altimeter): 30.15 inches Hg (1021.0 mb)
Winds: from the E (100 degrees) at 5 MPH (4 knots; 2.1 m/s)
Visibility: 6 or more miles (10+ km)
Ceiling: at least 12,000 feet AGL
Clouds: few clouds at 4000 feet AGL
scattered clouds at 5000 feet AGL
Weather: no significant weather observed at this time

METAR text: ROMY 182130Z 10004KT 9999 FEW040 BKN050 18/12 Q1021
Conditions at: ROMY (MIYAKOJIMA ISLAN, JP) observed 2130 UTC 18 January 2019
Temperature: 18.0°C (64°F)
Dewpoint: 12.0°C (54°F) [RH = 68%]
Pressure (altimeter): 30.15 inches Hg (1021.0 mb)
Winds: from the E (100 degrees) at 5 MPH (4 knots; 2.1 m/s)
Visibility: 6 or more miles (10+ km)
Ceiling: 5000 feet AGL
Clouds: few clouds at 4000 feet AGL
broken clouds at 5000 feet AGL
Weather: no significant weather observed at this time

METAR text: ROMY 181100Z 08007KT 040V110 9999 BKN043 18/10 Q1022
Conditions at: ROMY (MIYAKOJIMA ISLAN, JP) observed 1100 UTC 18 January 2019
Temperature: 18.0°C (64°F)
Dewpoint: 10.0°C (50°F) [RH = 59%]
Pressure (altimeter): 30.18 inches Hg (1022.0 mb)
Winds: from the E (80 degrees) at 8 MPH (7 knots; 3.6 m/s)
Visibility: 6 or more miles (10+ km)
Ceiling: 4300 feet AGL
Clouds: broken clouds at 4300 feet AGL
Weather: no significant weather observed at this time

METAR text: ROMY 181000Z 07011KT 9999 BKN043 17/09 Q1022
Conditions at: ROMY (MIYAKOJIMA ISLAN, JP) observed 1000 UTC 18 January 2019
Temperature: 17.0°C (63°F)
Dewpoint: 9.0°C (48°F) [RH = 59%]
Pressure (altimeter): 30.18 inches Hg (1022.0 mb)
Winds: from the ENE (70 degrees) at 13 MPH (11 knots; 5.7 m/s)
Visibility: 6 or more miles (10+ km)
Ceiling: 4300 feet AGL
Clouds: broken clouds at 4300 feet AGL
Weather: no significant weather observed at this time

METAR text: ROMY 180900Z 05009KT 9999 BKN040 18/11 Q1022
Conditions at: ROMY (MIYAKOJIMA ISLAN, JP) observed 0900 UTC 18 January 2019
Temperature: 18.0°C (64°F)
Dewpoint: 11.0°C (52°F) [RH = 64%]
Pressure (altimeter): 30.18 inches Hg (1022.0 mb)
Winds: from the NE (50 degrees) at 10 MPH (9 knots; 4.6 m/s)
Visibility: 6 or more miles (10+ km)
Ceiling: 4000 feet AGL
Clouds: broken clouds at 4000 feet AGL
Weather: no significant weather observed at this time

METAR text: ROMY 180800Z 06008KT 030V090 9999 BKN041 18/09 Q1022
Conditions at: ROMY (MIYAKOJIMA ISLAN, JP) observed 0800 UTC 18 January 2019
Temperature: 18.0°C (64°F)
Dewpoint: 9.0°C (48°F) [RH = 56%]
Pressure (altimeter): 30.18 inches Hg (1022.0 mb)
Winds: from the ENE (60 degrees) at 9 MPH (8 knots; 4.1 m/s)
Visibility: 6 or more miles (10+ km)
Ceiling: 4100 feet AGL
Clouds: broken clouds at 4100 feet AGL
Weather: no significant weather observed at this time

METAR text: ROMY 180700Z 05010KT 9999 FEW035 BKN043 19/09 Q1022
Conditions at: ROMY (MIYAKOJIMA ISLAN, JP) observed 0700 UTC 18 January 2019
Temperature: 19.0°C (66°F)
Dewpoint: 9.0°C (48°F) [RH = 52%]
Pressure (altimeter): 30.18 inches Hg (1022.0 mb)
Winds: from the NE (50 degrees) at 12 MPH (10 knots; 5.1 m/s)
Visibility: 6 or more miles (10+ km)
Ceiling: 4300 feet AGL
Clouds: few clouds at 3500 feet AGL
broken clouds at 4300 feet AGL
Weather: no significant weather observed at this time

METAR text: ROMY 180600Z 05011KT 9999 BKN039 19/10 Q1022
Conditions at: ROMY (MIYAKOJIMA ISLAN, JP) observed 0600 UTC 18 January 2019
Temperature: 19.0°C (66°F)
Dewpoint: 10.0°C (50°F) [RH = 56%]
Pressure (altimeter): 30.18 inches Hg (1022.0 mb)
Winds: from the NE (50 degrees) at 13 MPH (11 knots; 5.7 m/s)
Visibility: 6 or more miles (10+ km)
Ceiling: 3900 feet AGL
Clouds: broken clouds at 3900 feet AGL
Weather: no significant weather observed at this time

METAR text: ROMY 180500Z 05012KT 9999 SCT035 BKN043 19/10 Q1023
Conditions at: ROMY (MIYAKOJIMA ISLAN, JP) observed 0500 UTC 18 January 2019
Temperature: 19.0°C (66°F)
Dewpoint: 10.0°C (50°F) [RH = 56%]
Pressure (altimeter): 30.21 inches Hg (1023.0 mb)
Winds: from the NE (50 degrees) at 14 MPH (12 knots; 6.2 m/s)
Visibility: 6 or more miles (10+ km)
Ceiling: 4300 feet AGL
Clouds: scattered clouds at 3500 feet AGL
broken clouds at 4300 feet AGL
Weather: no significant weather observed at this time

METAR text: ROMY 180400Z 07012KT 9999 SCT046 20/08 Q1023
Conditions at: ROMY (MIYAKOJIMA ISLAN, JP) observed 0400 UTC 18 January 2019
Temperature: 20.0°C (68°F)
Dewpoint: 8.0°C (46°F) [RH = 46%]
Pressure (altimeter): 30.21 inches Hg (1023.0 mb)
Winds: from the ENE (70 degrees) at 14 MPH (12 knots; 6.2 m/s)
Visibility: 6 or more miles (10+ km)
Ceiling: at least 12,000 feet AGL
Clouds: scattered clouds at 4600 feet AGL
Weather: no significant weather observed at this time

METAR text: ROMY 180300Z 06012KT 9999 SCT034 BKN042 18/10 Q1024
Conditions at: ROMY (MIYAKOJIMA ISLAN, JP) observed 0300 UTC 18 January 2019
Temperature: 18.0°C (64°F)
Dewpoint: 10.0°C (50°F) [RH = 59%]
Pressure (altimeter): 30.24 inches Hg (1024.0 mb)
Winds: from the ENE (60 degrees) at 14 MPH (12 knots; 6.2 m/s)
Visibility: 6 or more miles (10+ km)
Ceiling: 4200 feet AGL
Clouds: scattered clouds at 3400 feet AGL
broken clouds at 4200 feet AGL
Weather: no significant weather observed at this time

METAR text: ROMY 180200Z 06013KT 030V090 9999 SCT046 20/09 Q1025
Conditions at: ROMY (MIYAKOJIMA ISLAN, JP) observed 0200 UTC 18 January 2019
Temperature: 20.0°C (68°F)
Dewpoint: 9.0°C (48°F) [RH = 49%]
Pressure (altimeter): 30.27 inches Hg (1025.0 mb)
Winds: from the ENE (60 degrees) at 15 MPH (13 knots; 6.7 m/s)
Visibility: 6 or more miles (10+ km)
Ceiling: at least 12,000 feet AGL
Clouds: scattered clouds at 4600 feet AGL
Weather: no significant weather observed at this time

METAR text: ROMY 180100Z 04010KT 9999 SCT040 18/10 Q1025
Conditions at: ROMY (MIYAKOJIMA ISLAN, JP) observed 0100 UTC 18 January 2019
Temperature: 18.0°C (64°F)
Dewpoint: 10.0°C (50°F) [RH = 59%]
Pressure (altimeter): 30.27 inches Hg (1025.0 mb)
Winds: from the NE (40 degrees) at 12 MPH (10 knots; 5.1 m/s)
Visibility: 6 or more miles (10+ km)
Ceiling: at least 12,000 feet AGL
Clouds: scattered clouds at 4000 feet AGL
Weather: no significant weather observed at this time